createdAt,value
2018-09-12T00:00:47.347Z,3.90
2018-09-12T00:01:47.318Z,4.50
2018-09-12T00:02:47.287Z,3.60
2018-09-12T00:03:47.257Z,3.70
2018-09-12T00:04:47.235Z,3.30
2018-09-12T00:05:47.214Z,3.30
2018-09-12T00:06:47.181Z,3.70
2018-09-12T00:07:47.152Z,3.70
2018-09-12T00:08:47.130Z,3.90
2018-09-12T00:09:47.097Z,3.80
2018-09-12T00:10:47.079Z,4.10
2018-09-12T00:11:47.045Z,3.80
2018-09-12T00:12:47.017Z,3.60
2018-09-12T00:13:46.990Z,3.20
2018-09-12T00:14:46.963Z,3.90
2018-09-12T00:15:46.952Z,3.90
2018-09-12T00:16:46.910Z,4.00
2018-09-12T00:17:46.885Z,3.60
2018-09-12T00:18:46.857Z,3.80
2018-09-12T00:19:46.829Z,3.90
2018-09-12T00:20:46.808Z,3.70
2018-09-12T00:21:46.786Z,4.10
2018-09-12T00:22:46.751Z,4.30
2018-09-12T00:23:46.727Z,4.00
2018-09-12T00:24:46.696Z,4.40
2018-09-12T00:25:46.670Z,3.80
2018-09-12T00:26:46.660Z,3.90
2018-09-12T00:27:46.622Z,4.00
2018-09-12T00:28:46.589Z,4.10
2018-09-12T00:29:46.564Z,3.90
2018-09-12T00:30:46.539Z,4.00
2018-09-12T00:31:46.518Z,4.20
2018-09-12T00:32:46.481Z,3.90
2018-09-12T00:33:46.457Z,3.70
2018-09-12T00:34:46.445Z,4.00
2018-09-12T00:35:46.409Z,4.00
2018-09-12T00:36:46.386Z,3.90
2018-09-12T00:37:46.350Z,3.40
2018-09-12T00:38:46.325Z,3.90
2018-09-12T00:39:46.299Z,4.00
2018-09-12T00:40:46.268Z,3.80
2018-09-12T00:41:46.249Z,4.10
2018-09-12T00:42:46.217Z,3.90
2018-09-12T00:43:46.191Z,3.70
2018-09-12T00:44:46.162Z,3.90
2018-09-12T00:45:46.139Z,4.50
2018-09-12T00:46:46.120Z,3.70
2018-09-12T00:47:46.082Z,4.60
2018-09-12T00:48:46.054Z,4.70
2018-09-12T00:49:46.027Z,4.30
2018-09-12T00:50:46.001Z,4.70
2018-09-12T00:51:45.994Z,4.10
2018-09-12T00:52:45.946Z,4.90
2018-09-12T00:53:45.982Z,4.30
2018-09-12T00:54:45.895Z,4.10
2018-09-12T00:55:45.868Z,4.50
2018-09-12T00:56:45.841Z,4.30
2018-09-12T00:57:45.822Z,3.40
2018-09-12T00:58:45.787Z,4.40
2018-09-12T00:59:45.762Z,4.60
2018-09-12T01:00:45.732Z,3.80
2018-09-12T01:01:45.705Z,4.40
2018-09-12T01:02:45.687Z,4.70
2018-09-12T01:03:45.652Z,4.60
2018-09-12T01:04:45.634Z,5.20
2018-09-12T01:05:45.602Z,4.00
2018-09-12T01:06:45.577Z,4.20
2018-09-12T01:07:45.554Z,4.30
2018-09-12T01:08:45.518Z,4.20
2018-09-12T01:09:45.493Z,5.00
2018-09-12T01:10:45.464Z,4.80
2018-09-12T01:11:45.441Z,5.20
2018-09-12T01:12:45.421Z,5.10
2018-09-12T01:13:45.387Z,4.90
2018-09-12T01:14:45.359Z,4.60
2018-09-12T01:15:45.331Z,4.40
2018-09-12T01:16:45.304Z,4.20
2018-09-12T01:17:45.282Z,4.80
2018-09-12T01:18:45.248Z,4.20
2018-09-12T01:19:45.221Z,4.60
2018-09-12T01:20:45.196Z,4.60
2018-09-12T01:21:45.171Z,5.40
2018-09-12T01:22:45.149Z,5.20
2018-09-12T01:23:45.115Z,5.30
2018-09-12T01:24:45.094Z,4.60
2018-09-12T01:25:45.062Z,4.70
2018-09-12T01:26:45.035Z,5.00
2018-09-12T01:27:45.023Z,4.60
2018-09-12T01:28:44.994Z,5.10
2018-09-12T01:29:44.953Z,5.00
2018-09-12T01:30:44.928Z,5.70
2018-09-12T01:31:44.901Z,4.60
2018-09-12T01:32:44.873Z,5.40
2018-09-12T01:33:44.855Z,5.00
2018-09-12T01:34:44.820Z,5.00
2018-09-12T01:35:45.744Z,4.90
2018-09-12T01:36:44.765Z,5.30
2018-09-12T01:37:44.739Z,4.60
2018-09-12T01:38:44.723Z,5.40
2018-09-12T01:39:44.685Z,6.20
2018-09-12T01:40:44.659Z,5.80
2018-09-12T01:41:44.630Z,5.20
2018-09-12T01:42:44.611Z,5.40
2018-09-12T01:43:44.586Z,4.70
2018-09-12T01:44:44.558Z,5.60
2018-09-12T01:45:44.523Z,5.50
2018-09-12T01:46:44.497Z,5.10
2018-09-12T01:47:44.478Z,5.30
2018-09-12T01:48:44.451Z,5.50
2018-09-12T01:49:44.415Z,5.60
2018-09-12T01:50:44.388Z,5.30
2018-09-12T01:51:44.361Z,5.50
2018-09-12T01:52:44.335Z,5.20
2018-09-12T01:53:44.323Z,5.70
2018-09-12T01:54:44.281Z,5.30
2018-09-12T01:55:44.257Z,5.60
2018-09-12T01:56:44.226Z,6.10
2018-09-12T01:57:44.202Z,6.10
2018-09-12T01:58:44.188Z,5.90
2018-09-12T01:59:44.148Z,5.90
2018-09-12T02:00:44.119Z,5.50
2018-09-12T02:01:44.095Z,6.10
2018-09-12T02:02:44.068Z,6.40
2018-09-12T02:03:44.048Z,6.20
2018-09-12T02:04:44.020Z,6.40
2018-09-12T02:05:43.997Z,6.20
2018-09-12T02:06:43.958Z,6.90
2018-09-12T02:07:43.933Z,6.90
2018-09-12T02:08:43.904Z,7.20
2018-09-12T02:09:43.887Z,6.60
2018-09-12T02:10:43.850Z,7.20
2018-09-12T02:11:43.825Z,6.50
2018-09-12T02:12:43.796Z,7.20
2018-09-12T02:13:43.773Z,7.30
2018-09-12T02:14:43.753Z,7.50
2018-09-12T02:15:43.715Z,6.60
2018-09-12T02:16:43.686Z,7.20
2018-09-12T02:17:43.663Z,7.80
2018-09-12T02:18:43.635Z,8.30
2018-09-12T02:19:43.614Z,7.30
2018-09-12T02:20:43.581Z,7.70
2018-09-12T02:21:43.554Z,8.70
2018-09-12T02:22:43.526Z,8.60
2018-09-12T02:23:43.503Z,7.30
2018-09-12T02:24:43.480Z,7.80
2018-09-12T02:25:43.446Z,7.60
2018-09-12T02:26:43.419Z,8.60
2018-09-12T02:27:43.392Z,7.60
2018-09-12T02:28:43.368Z,7.10
2018-09-12T02:29:43.347Z,7.10
2018-09-12T02:30:43.312Z,8.30
2018-09-12T02:31:43.284Z,7.50
2018-09-12T02:32:43.256Z,7.70
2018-09-12T02:33:43.231Z,8.00
2018-09-12T02:34:43.223Z,7.50
2018-09-12T02:35:43.223Z,7.40
2018-09-12T02:36:43.149Z,8.00
2018-09-12T02:37:43.122Z,7.20
2018-09-12T02:38:43.096Z,7.60
2018-09-12T02:39:43.070Z,7.40
2018-09-12T02:40:43.048Z,8.30
2018-09-12T02:41:43.013Z,8.10
2018-09-12T02:42:42.985Z,8.00
2018-09-12T02:43:42.958Z,7.40
2018-09-12T02:44:42.931Z,7.80
2018-09-12T02:45:42.914Z,7.40
2018-09-12T02:46:42.886Z,7.50
2018-09-12T02:47:42.852Z,6.50
2018-09-12T02:48:42.830Z,6.10
2018-09-12T02:49:42.796Z,6.70
2018-09-12T02:50:42.780Z,6.80
2018-09-12T02:51:42.743Z,6.70
2018-09-12T02:52:42.717Z,6.70
2018-09-12T02:53:42.687Z,6.70
2018-09-12T02:54:42.661Z,6.10
2018-09-12T02:55:42.647Z,7.10
2018-09-12T02:56:42.607Z,6.90
2018-09-12T02:57:42.582Z,6.90
2018-09-12T02:58:42.554Z,6.10
2018-09-12T02:59:42.528Z,6.40
2018-09-12T03:00:42.509Z,6.80
2018-09-12T03:01:42.470Z,7.10
2018-09-12T03:02:42.444Z,6.80
2018-09-12T03:03:42.419Z,6.90
2018-09-12T03:04:42.389Z,7.10
2018-09-12T03:05:42.384Z,7.10
2018-09-12T03:06:42.335Z,7.00
2018-09-12T03:07:42.319Z,7.80
2018-09-12T03:08:42.282Z,8.40
2018-09-12T03:09:42.255Z,7.70
2018-09-12T03:10:42.229Z,8.20
2018-09-12T03:11:42.208Z,8.00
2018-09-12T03:12:42.178Z,8.20
2018-09-12T03:13:42.146Z,8.90
2018-09-12T03:14:42.121Z,8.10
2018-09-12T03:15:42.093Z,8.50
2018-09-12T03:16:42.081Z,8.60
2018-09-12T03:17:42.039Z,8.70
2018-09-12T03:18:42.010Z,8.60
2018-09-12T03:19:41.984Z,8.70
2018-09-12T03:20:42.041Z,8.70
2018-09-12T03:21:41.938Z,7.70
2018-09-12T03:22:41.903Z,8.40
2018-09-12T03:23:41.875Z,8.30
2018-09-12T03:24:41.850Z,9.00
2018-09-12T03:25:41.820Z,8.30
2018-09-12T03:26:41.802Z,8.60
2018-09-12T03:27:41.767Z,9.20
2018-09-12T03:28:41.741Z,9.30
2018-09-12T03:29:41.713Z,9.10
2018-09-12T03:30:41.687Z,9.00
2018-09-12T03:31:41.669Z,9.10
2018-09-12T03:32:41.632Z,9.80
2018-09-12T03:33:41.603Z,9.50
2018-09-12T03:34:41.579Z,9.40
2018-09-12T03:35:41.549Z,8.80
2018-09-12T03:36:41.532Z,8.50
2018-09-12T03:37:41.496Z,9.10
2018-09-12T03:38:41.467Z,10.20
2018-09-12T03:39:41.444Z,9.60
2018-09-12T03:40:41.418Z,9.20
2018-09-12T03:41:41.416Z,10.00
2018-09-12T03:42:41.365Z,9.30
2018-09-12T03:43:41.336Z,9.10
2018-09-12T03:44:41.307Z,9.70
2018-09-12T03:45:41.282Z,9.60
2018-09-12T03:46:41.253Z,10.10
2018-09-12T03:47:41.244Z,9.00
2018-09-12T03:48:41.197Z,10.00
2018-09-12T03:49:41.170Z,9.70
2018-09-12T03:50:41.143Z,9.50
2018-09-12T03:51:41.119Z,10.20
2018-09-12T03:52:41.100Z,8.80
2018-09-12T03:53:41.063Z,9.40
2018-09-12T03:54:41.040Z,9.60
2018-09-12T03:55:41.009Z,10.40
2018-09-12T03:56:40.982Z,9.50
2018-09-12T03:57:40.964Z,9.80
2018-09-12T03:58:40.926Z,10.20
2018-09-12T03:59:40.903Z,9.90
2018-09-12T04:00:40.871Z,9.60
2018-09-12T04:01:40.847Z,10.10
2018-09-12T04:02:40.841Z,10.10
2018-09-12T04:03:40.790Z,9.70
2018-09-12T04:04:40.765Z,9.70
2018-09-12T04:05:40.751Z,9.50
2018-09-12T04:06:40.708Z,9.70
2018-09-12T04:07:40.690Z,9.50
2018-09-12T04:08:40.655Z,10.20
2018-09-12T04:09:40.632Z,10.10
2018-09-12T04:10:40.605Z,10.00
2018-09-12T04:11:40.572Z,9.90
2018-09-12T04:12:40.556Z,9.20
2018-09-12T04:13:40.517Z,10.20
2018-09-12T04:14:40.489Z,10.10
2018-09-12T04:15:40.468Z,10.40
2018-09-12T04:16:40.494Z,10.40
2018-09-12T04:17:40.420Z,11.10
2018-09-12T04:18:40.379Z,10.60
2018-09-12T04:19:40.355Z,10.40
2018-09-12T04:20:40.325Z,11.00
2018-09-12T04:21:40.300Z,10.80
2018-09-12T04:22:40.288Z,11.00
2018-09-12T04:23:40.246Z,10.40
2018-09-12T04:24:40.221Z,11.00
2018-09-12T04:25:40.190Z,10.60
2018-09-12T04:26:40.162Z,10.80
2018-09-12T04:27:40.138Z,10.40
2018-09-12T04:28:40.116Z,10.60
2018-09-12T04:29:40.079Z,12.00
2018-09-12T04:30:40.052Z,10.20
2018-09-12T04:31:40.025Z,10.60
2018-09-12T04:32:40.000Z,11.10
2018-09-12T04:33:39.982Z,11.20
2018-09-12T04:34:39.945Z,10.40
2018-09-12T04:35:39.917Z,10.40
2018-09-12T04:36:39.899Z,10.60
2018-09-12T04:37:39.859Z,10.40
2018-09-12T04:38:39.842Z,9.90
2018-09-12T04:39:39.805Z,11.20
2018-09-12T04:40:39.783Z,9.60
2018-09-12T04:41:39.750Z,10.10
2018-09-12T04:42:39.743Z,10.00
2018-09-12T04:43:39.703Z,10.20
2018-09-12T04:44:39.668Z,10.50
2018-09-12T04:45:39.641Z,11.20
2018-09-12T04:46:39.614Z,10.10
2018-09-12T04:47:39.585Z,9.90
2018-09-12T04:48:39.566Z,9.90
2018-09-12T04:49:39.528Z,10.20
2018-09-12T04:50:39.502Z,10.50
2018-09-12T04:51:39.473Z,10.10
2018-09-12T04:52:39.447Z,10.30
2018-09-12T04:53:39.433Z,10.80
2018-09-12T04:54:39.396Z,10.70
2018-09-12T04:55:39.370Z,11.80
2018-09-12T04:56:39.337Z,10.70
2018-09-12T04:57:39.315Z,11.70
2018-09-12T04:58:39.286Z,10.80
2018-09-12T04:59:39.291Z,10.40
2018-09-12T05:00:39.227Z,11.70
2018-09-12T05:01:39.201Z,11.50
2018-09-12T05:02:39.173Z,11.00
2018-09-12T05:03:39.147Z,12.20
2018-09-12T05:04:39.128Z,11.00
2018-09-12T05:05:39.091Z,11.30
2018-09-12T05:06:39.068Z,12.10
2018-09-12T05:07:39.041Z,11.00
2018-09-12T05:08:39.013Z,11.40
2018-09-12T05:09:38.985Z,11.80
2018-09-12T05:10:38.956Z,11.20
2018-09-12T05:11:38.930Z,11.40
2018-09-12T05:12:38.900Z,10.90
2018-09-12T05:13:38.868Z,12.00
2018-09-12T05:14:38.858Z,12.30
2018-09-12T05:15:38.817Z,12.40
2018-09-12T05:16:38.862Z,12.60
2018-09-12T05:17:38.762Z,11.90
2018-09-12T05:18:38.735Z,12.90
2018-09-12T05:19:38.720Z,13.00
2018-09-12T05:20:38.681Z,12.40
2018-09-12T05:21:38.653Z,12.30
2018-09-12T05:22:38.626Z,13.60
2018-09-12T05:23:38.598Z,14.10
2018-09-12T05:24:38.589Z,12.30
2018-09-12T05:25:38.543Z,13.30
2018-09-12T05:26:38.526Z,12.30
2018-09-12T05:27:38.490Z,12.70
2018-09-12T05:28:38.588Z,13.70
2018-09-12T05:29:38.440Z,14.10
2018-09-12T05:30:38.419Z,13.80
2018-09-12T05:31:38.381Z,14.30
2018-09-12T05:32:38.352Z,15.30
2018-09-12T05:33:38.325Z,14.10
2018-09-12T05:34:38.296Z,15.90
2018-09-12T05:35:38.280Z,15.80
2018-09-12T05:36:38.244Z,17.00
2018-09-12T05:37:38.219Z,16.50
2018-09-12T05:38:38.187Z,17.40
2018-09-12T05:39:38.164Z,16.70
2018-09-12T05:40:38.141Z,17.50
2018-09-12T05:41:38.109Z,17.30
2018-09-12T05:42:38.079Z,19.10
2018-09-12T05:43:38.050Z,18.80
2018-09-12T05:44:38.024Z,21.80
2018-09-12T05:45:38.008Z,19.60
2018-09-12T05:46:37.968Z,19.90
2018-09-12T05:47:37.944Z,20.40
2018-09-12T05:48:37.917Z,20.30
2018-09-12T05:49:37.885Z,19.90
2018-09-12T05:50:37.868Z,20.50
2018-09-12T05:51:37.843Z,20.50
2018-09-12T05:52:37.806Z,19.60
2018-09-12T05:53:37.782Z,20.70
2018-09-12T05:54:37.750Z,19.30
2018-09-12T05:55:37.738Z,18.90
2018-09-12T05:56:37.701Z,19.00
2018-09-12T05:57:37.669Z,19.70
2018-09-12T05:58:37.643Z,18.40
2018-09-12T05:59:37.614Z,18.30
2018-09-12T06:00:37.599Z,18.70
2018-09-12T06:01:37.569Z,18.40
2018-09-12T06:02:37.647Z,18.20
2018-09-12T06:03:37.510Z,17.80
2018-09-12T06:04:37.474Z,18.90
2018-09-12T06:05:37.466Z,17.50
2018-09-12T06:06:37.434Z,18.90
2018-09-12T06:07:37.399Z,17.00
2018-09-12T06:08:37.369Z,17.80
2018-09-12T06:09:37.344Z,17.60
2018-09-12T06:10:37.316Z,17.00
2018-09-12T06:11:37.297Z,17.30
2018-09-12T06:12:37.263Z,17.70
2018-09-12T06:13:37.230Z,19.20
2018-09-12T06:14:37.207Z,18.30
2018-09-12T06:15:37.179Z,18.30
2018-09-12T06:16:37.161Z,17.70
2018-09-12T06:17:37.125Z,17.30
2018-09-12T06:18:37.099Z,17.30
2018-09-12T06:19:37.069Z,18.00
2018-09-12T06:20:37.045Z,17.90
2018-09-12T06:21:37.024Z,17.30
2018-09-12T06:22:36.992Z,19.30
2018-09-12T06:23:36.962Z,19.40
2018-09-12T06:24:36.976Z,17.70
2018-09-12T06:25:36.914Z,18.40
2018-09-12T06:26:36.888Z,18.90
2018-09-12T06:27:36.853Z,17.10
2018-09-12T06:28:36.830Z,18.20
2018-09-12T06:29:36.797Z,19.10
2018-09-12T06:30:36.822Z,19.00
2018-09-12T06:31:36.758Z,18.90
2018-09-12T06:32:36.721Z,18.80
2018-09-12T06:33:36.690Z,18.90
2018-09-12T06:34:36.663Z,17.80
2018-09-12T06:35:36.638Z,18.30
2018-09-12T06:36:36.631Z,18.40
2018-09-12T06:37:36.581Z,18.80
2018-09-12T06:38:36.581Z,17.90
2018-09-12T06:39:36.530Z,18.70
2018-09-12T06:40:36.501Z,18.60
2018-09-12T06:41:36.489Z,17.90
2018-09-12T06:42:36.454Z,18.00
2018-09-12T06:43:36.418Z,19.20
2018-09-12T06:44:36.414Z,18.20
2018-09-12T06:45:36.373Z,18.40
2018-09-12T06:46:36.341Z,17.00
2018-09-12T06:47:36.323Z,17.50
2018-09-12T06:48:36.284Z,16.90
2018-09-12T06:49:36.256Z,18.30
2018-09-12T06:50:36.229Z,17.60
2018-09-12T06:51:36.204Z,18.20
2018-09-12T06:52:36.183Z,17.60
2018-09-12T06:53:36.148Z,17.80
2018-09-12T06:54:36.128Z,17.50
2018-09-12T06:55:36.092Z,17.70
2018-09-12T06:56:36.066Z,17.80
2018-09-12T06:57:36.049Z,17.50
2018-09-12T06:58:36.012Z,18.00
2018-09-12T06:59:35.989Z,18.60
2018-09-12T07:00:36.033Z,17.40
2018-09-12T07:01:35.939Z,18.00
2018-09-12T07:02:35.915Z,17.00
2018-09-12T07:03:35.881Z,19.60
2018-09-12T07:04:35.849Z,20.20
2018-09-12T07:05:35.829Z,19.20
2018-09-12T07:06:35.802Z,18.80
2018-09-12T07:07:35.894Z,19.70
2018-09-12T07:08:35.744Z,18.70
2018-09-12T07:09:35.716Z,19.60
2018-09-12T07:10:35.688Z,19.40
2018-09-12T07:11:35.664Z,20.40
2018-09-12T07:12:35.655Z,20.10
2018-09-12T07:13:35.611Z,19.90
2018-09-12T07:14:35.581Z,19.00
2018-09-12T07:15:35.556Z,19.10
2018-09-12T07:16:35.528Z,18.60
2018-09-12T07:17:35.521Z,17.90
2018-09-12T07:18:35.483Z,19.30
2018-09-12T07:19:35.447Z,18.30
2018-09-12T07:20:35.422Z,19.60
2018-09-12T07:21:35.393Z,18.80
2018-09-12T07:22:35.369Z,18.90
2018-09-12T07:23:35.350Z,18.30
2018-09-12T07:24:35.410Z,18.40
2018-09-12T07:25:35.288Z,17.40
2018-09-12T07:26:35.261Z,19.40
2018-09-12T07:27:35.302Z,17.80
2018-09-12T07:28:35.259Z,18.60
2018-09-12T07:29:35.181Z,17.50
2018-09-12T07:30:35.239Z,18.30
2018-09-12T07:31:35.131Z,18.90
2018-09-12T07:32:35.105Z,19.60
2018-09-12T07:33:35.090Z,17.80
2018-09-12T07:34:35.057Z,20.20
2018-09-12T07:35:35.027Z,19.10
2018-09-12T07:36:34.999Z,19.20
2018-09-12T07:37:34.973Z,19.20
2018-09-12T07:38:34.954Z,18.40
2018-09-12T07:39:35.169Z,18.30
2018-09-12T07:40:34.912Z,17.40
2018-09-12T07:41:34.910Z,17.10
2018-09-12T07:42:34.843Z,17.50
2018-09-12T07:43:34.846Z,16.30
2018-09-12T07:44:34.793Z,16.90
2018-09-12T07:45:34.769Z,17.10
2018-09-12T07:46:34.741Z,16.30
2018-09-12T07:47:34.714Z,16.50
2018-09-12T07:48:34.689Z,14.60
2018-09-12T07:49:34.671Z,15.70
2018-09-12T07:50:34.638Z,14.90
2018-09-12T07:51:34.611Z,14.60
2018-09-12T07:52:34.585Z,15.60
2018-09-12T07:53:34.562Z,15.10
2018-09-12T07:54:34.541Z,14.10
2018-09-12T07:55:34.513Z,14.10
2018-09-12T07:56:34.483Z,14.60
2018-09-12T07:57:34.457Z,13.60
2018-09-12T07:58:34.430Z,12.60
2018-09-12T07:59:34.412Z,13.70
2018-09-12T08:00:34.466Z,14.20
2018-09-12T08:01:34.355Z,13.80
2018-09-12T08:02:34.326Z,14.60
2018-09-12T08:03:34.306Z,12.60
2018-09-12T08:04:34.286Z,13.10
2018-09-12T08:05:34.252Z,12.40
2018-09-12T08:06:34.224Z,12.70
2018-09-12T08:07:34.199Z,13.40
2018-09-12T08:08:34.170Z,13.30
2018-09-12T08:09:34.156Z,11.90
2018-09-12T08:10:34.124Z,12.10
2018-09-12T08:11:34.095Z,13.60
2018-09-12T08:12:34.069Z,12.20
2018-09-12T08:13:34.046Z,12.30
2018-09-12T08:14:34.029Z,12.40
2018-09-12T08:15:33.994Z,11.10
2018-09-12T08:16:33.967Z,11.10
2018-09-12T08:17:33.943Z,11.50
2018-09-12T08:18:33.919Z,12.00
2018-09-12T08:19:33.901Z,12.30
2018-09-12T08:20:33.871Z,11.20
2018-09-12T08:21:33.843Z,12.20
2018-09-12T08:22:33.817Z,11.90
2018-09-12T08:23:33.790Z,12.30
2018-09-12T08:24:33.772Z,11.20
2018-09-12T08:25:33.742Z,11.50
2018-09-12T08:26:33.722Z,11.40
2018-09-12T08:27:33.687Z,11.10
2018-09-12T08:28:33.661Z,11.20
2018-09-12T08:29:33.647Z,12.20
2018-09-12T08:30:33.608Z,12.40
2018-09-12T08:31:33.588Z,12.20
2018-09-12T08:32:33.560Z,11.70
2018-09-12T08:33:33.536Z,12.20
2018-09-12T08:34:33.518Z,11.70
2018-09-12T08:35:33.484Z,11.70
2018-09-12T08:36:33.520Z,11.80
2018-09-12T08:37:33.434Z,11.00
2018-09-12T08:38:33.408Z,11.70
2018-09-12T08:39:33.541Z,10.20
2018-09-12T08:40:33.360Z,11.00
2018-09-12T08:41:33.334Z,10.80
2018-09-12T08:42:33.319Z,10.60
2018-09-12T08:43:33.283Z,10.50
2018-09-12T08:44:33.263Z,9.10
2018-09-12T08:45:33.240Z,8.90
2018-09-12T08:46:33.238Z,10.20
2018-09-12T08:47:33.187Z,9.10
2018-09-12T08:48:33.159Z,8.70
2018-09-12T08:49:33.135Z,9.50
2018-09-12T08:50:33.116Z,9.50
2018-09-12T08:51:33.084Z,10.10
2018-09-12T08:52:33.057Z,9.80
2018-09-12T08:53:33.036Z,9.20
2018-09-12T08:54:33.007Z,9.70
2018-09-12T08:55:32.990Z,9.10
2018-09-12T08:56:32.961Z,9.10
2018-09-12T08:57:32.934Z,8.70
2018-09-12T08:58:32.909Z,9.80
2018-09-12T08:59:32.886Z,9.80
2018-09-12T09:00:32.865Z,8.80
2018-09-12T09:01:32.956Z,9.40
2018-09-12T09:02:32.806Z,9.40
2018-09-12T09:03:32.783Z,9.20
2018-09-12T09:04:32.757Z,8.50
2018-09-12T09:05:32.742Z,8.70
2018-09-12T09:06:32.708Z,9.50
2018-09-12T09:07:32.684Z,8.40
2018-09-12T09:08:32.659Z,8.80
2018-09-12T09:09:32.634Z,8.20
2018-09-12T09:10:32.665Z,9.00
2018-09-12T09:11:32.594Z,8.60
2018-09-12T09:12:32.559Z,9.60
2018-09-12T09:13:32.548Z,10.00
2018-09-12T09:14:32.509Z,10.00
2018-09-12T09:15:32.482Z,10.20
2018-09-12T09:16:32.466Z,10.00
2018-09-12T09:17:32.432Z,9.50
2018-09-12T09:18:32.409Z,10.40
2018-09-12T09:19:32.383Z,9.50
2018-09-12T09:20:32.359Z,10.70
2018-09-12T09:21:32.351Z,11.10
2018-09-12T09:22:32.309Z,9.70
2018-09-12T09:23:32.298Z,10.70
2018-09-12T09:24:32.265Z,10.70
2018-09-12T09:25:32.234Z,11.30
2018-09-12T09:26:32.220Z,11.20
2018-09-12T09:27:32.184Z,10.30
2018-09-12T09:28:32.157Z,10.00
2018-09-12T09:29:32.185Z,10.90
2018-09-12T09:30:32.106Z,11.10
2018-09-12T09:31:32.097Z,10.80
2018-09-12T09:32:32.067Z,10.00
2018-09-12T09:33:32.033Z,11.50
2018-09-12T09:34:32.005Z,11.00
2018-09-12T09:35:32.044Z,11.90
2018-09-12T09:36:31.954Z,11.20
2018-09-12T09:37:31.942Z,11.70
2018-09-12T09:38:31.906Z,11.70
2018-09-12T09:39:31.882Z,10.90
2018-09-12T09:40:31.855Z,11.80
2018-09-12T09:41:31.840Z,11.60
2018-09-12T09:42:31.811Z,11.30
2018-09-12T09:43:31.785Z,11.30
2018-09-12T09:44:31.756Z,10.40
2018-09-12T09:45:31.725Z,10.40
2018-09-12T09:46:31.704Z,10.60
2018-09-12T09:47:31.693Z,10.90
2018-09-12T09:48:31.732Z,10.10
2018-09-12T09:49:31.627Z,10.40
2018-09-12T09:50:31.602Z,10.40
2018-09-12T09:51:31.576Z,10.10
2018-09-12T09:52:31.564Z,10.30
2018-09-12T09:53:31.527Z,10.90
2018-09-12T09:54:31.526Z,10.90
2018-09-12T09:55:31.475Z,10.00
2018-09-12T09:56:31.456Z,10.10
2018-09-12T09:57:31.438Z,10.10
2018-09-12T09:58:31.400Z,10.30
2018-09-12T09:59:31.377Z,10.00
2018-09-12T10:00:31.354Z,10.10
2018-09-12T10:01:31.326Z,10.80
2018-09-12T10:02:31.317Z,10.20
2018-09-12T10:03:31.277Z,10.70
2018-09-12T10:04:31.253Z,10.20
2018-09-12T10:05:31.231Z,10.70
2018-09-12T10:06:31.204Z,11.10
2018-09-12T10:07:31.200Z,11.00
2018-09-12T10:08:31.153Z,11.60
2018-09-12T10:09:31.129Z,11.40
2018-09-12T10:10:31.104Z,11.00
2018-09-12T10:11:31.081Z,10.80
2018-09-12T10:12:31.058Z,10.60
2018-09-12T10:13:31.086Z,10.10
2018-09-12T10:14:31.007Z,10.70
2018-09-12T10:15:30.984Z,10.80
2018-09-12T10:16:30.957Z,10.60
2018-09-12T10:17:30.939Z,9.90
2018-09-12T10:18:30.916Z,9.80
2018-09-12T10:19:30.885Z,10.30
2018-09-12T10:20:30.868Z,11.60
2018-09-12T10:21:30.837Z,11.60
2018-09-12T10:22:30.813Z,11.60
2018-09-12T10:23:30.795Z,11.80
2018-09-12T10:24:30.766Z,11.40
2018-09-12T10:25:30.744Z,10.40
2018-09-12T10:26:30.713Z,9.40
2018-09-12T10:27:30.689Z,9.10
2018-09-12T10:28:30.687Z,8.90
2018-09-12T10:29:30.639Z,7.70
2018-09-12T10:30:30.616Z,7.30
2018-09-12T10:31:30.618Z,7.00
2018-09-12T10:32:30.564Z,6.80
2018-09-12T10:33:30.539Z,7.60
2018-09-12T10:34:30.522Z,6.50
2018-09-12T10:35:30.492Z,7.10
2018-09-12T10:36:30.463Z,7.00
2018-09-12T10:37:30.439Z,7.20
2018-09-12T10:38:30.412Z,7.00
2018-09-12T10:39:30.396Z,7.20
2018-09-12T10:40:30.360Z,6.70
2018-09-12T10:41:30.341Z,6.60
2018-09-12T10:42:30.310Z,6.30
2018-09-12T10:43:30.284Z,6.70
2018-09-12T10:44:30.266Z,6.50
2018-09-12T10:45:30.230Z,6.40
2018-09-12T10:46:30.210Z,5.30
2018-09-12T10:47:30.177Z,5.70
2018-09-12T10:48:30.152Z,6.60
2018-09-12T10:49:30.134Z,4.90
2018-09-12T10:50:30.097Z,5.50
2018-09-12T10:51:30.073Z,5.90
2018-09-12T10:52:30.057Z,5.70
2018-09-12T10:53:30.019Z,5.50
2018-09-12T10:54:30.004Z,5.90
2018-09-12T10:55:29.966Z,5.60
2018-09-12T10:56:29.938Z,5.20
2018-09-12T10:57:29.915Z,5.60
2018-09-12T10:58:29.892Z,5.40
2018-09-12T10:59:29.874Z,5.20
2018-09-12T11:00:29.834Z,5.10
2018-09-12T11:01:29.806Z,4.60
2018-09-12T11:02:29.779Z,4.70
2018-09-12T11:03:29.752Z,5.20
2018-09-12T11:04:29.739Z,4.80
2018-09-12T11:05:29.709Z,4.70
2018-09-12T11:06:29.670Z,4.80
2018-09-12T11:07:29.647Z,4.10
2018-09-12T11:08:29.618Z,4.50
2018-09-12T11:09:29.596Z,3.70
2018-09-12T11:10:29.572Z,4.50
2018-09-12T11:11:29.538Z,3.80
2018-09-12T11:12:29.511Z,4.30
2018-09-12T11:13:29.484Z,5.00
2018-09-12T11:14:29.455Z,3.40
2018-09-12T11:15:29.439Z,3.50
2018-09-12T11:16:29.402Z,3.40
2018-09-12T11:17:29.374Z,3.30
2018-09-12T11:18:29.350Z,3.40
2018-09-12T11:19:29.320Z,3.20
2018-09-12T11:20:29.304Z,3.40
2018-09-12T11:21:29.267Z,3.10
2018-09-12T11:22:29.241Z,3.10
2018-09-12T11:23:29.215Z,2.70
2018-09-12T11:24:29.185Z,2.50
2018-09-12T11:25:29.169Z,3.00
2018-09-12T11:26:29.133Z,2.50
2018-09-12T11:27:29.106Z,2.30
2018-09-12T11:28:29.078Z,2.50
2018-09-12T11:29:29.057Z,2.60
2018-09-12T11:30:29.038Z,2.50
2018-09-12T11:31:28.999Z,2.50
2018-09-12T11:32:28.973Z,2.40
2018-09-12T11:33:28.953Z,2.70
2018-09-12T11:34:28.919Z,2.30
2018-09-12T11:35:28.916Z,2.00
2018-09-12T11:36:28.865Z,2.30
2018-09-12T11:37:28.837Z,1.70
2018-09-12T11:38:28.840Z,1.50
2018-09-12T11:39:28.785Z,1.30
2018-09-12T11:40:28.755Z,1.50
2018-09-12T11:41:28.739Z,1.40
2018-09-12T11:42:28.703Z,1.70
2018-09-12T11:43:28.679Z,1.90
2018-09-12T11:44:28.649Z,1.80
2018-09-12T11:45:28.623Z,1.60
2018-09-12T11:46:28.609Z,1.60
2018-09-12T11:47:28.572Z,1.40
2018-09-12T11:48:28.542Z,1.80
2018-09-12T11:49:28.519Z,1.50
2018-09-12T11:50:28.488Z,1.80
2018-09-12T11:51:28.470Z,1.80
2018-09-12T11:52:28.435Z,2.20
2018-09-12T11:53:28.409Z,1.90
2018-09-12T11:54:28.383Z,1.70
2018-09-12T11:55:28.446Z,2.00
2018-09-12T11:56:28.337Z,1.80
2018-09-12T11:57:28.316Z,2.70
2018-09-12T11:58:28.278Z,2.80
2018-09-12T11:59:28.256Z,2.60
2018-09-12T12:00:28.221Z,2.80
2018-09-12T12:01:28.206Z,2.10
2018-09-12T12:02:28.170Z,2.60
2018-09-12T12:03:28.141Z,2.10
2018-09-12T12:04:28.110Z,3.30
2018-09-12T12:05:28.086Z,2.60
2018-09-12T12:06:28.067Z,3.00
2018-09-12T12:07:28.031Z,2.40
2018-09-12T12:08:28.004Z,2.60
2018-09-12T12:09:27.981Z,2.60
2018-09-12T12:10:27.947Z,2.80
2018-09-12T12:11:27.946Z,2.40
2018-09-12T12:12:27.897Z,3.00
2018-09-12T12:13:27.863Z,3.20
2018-09-12T12:14:27.842Z,3.00
2018-09-12T12:15:27.875Z,2.90
2018-09-12T12:16:27.785Z,2.90
2018-09-12T12:17:27.775Z,2.90
2018-09-12T12:18:27.730Z,3.20
2018-09-12T12:19:28.214Z,3.30
2018-09-12T12:20:27.677Z,2.90
2018-09-12T12:21:27.649Z,3.20
2018-09-12T12:22:27.628Z,3.50
2018-09-12T12:23:27.594Z,3.30
2018-09-12T12:24:27.566Z,3.40
2018-09-12T12:25:27.541Z,3.30
2018-09-12T12:26:27.512Z,3.40
2018-09-12T12:27:27.497Z,4.30
2018-09-12T12:28:27.458Z,4.60
2018-09-12T12:29:27.430Z,4.30
2018-09-12T12:30:27.405Z,4.90
2018-09-12T12:31:27.378Z,4.60
2018-09-12T12:32:27.358Z,4.40
2018-09-12T12:33:27.317Z,5.00
2018-09-12T12:34:27.292Z,4.70
2018-09-12T12:35:27.355Z,4.80
2018-09-12T12:36:27.235Z,5.30
2018-09-12T12:37:27.215Z,4.60
2018-09-12T12:38:27.182Z,5.20
2018-09-12T12:39:27.153Z,4.70
2018-09-12T12:40:27.133Z,5.20
2018-09-12T12:41:27.144Z,5.20
2018-09-12T12:42:27.083Z,5.80
2018-09-12T12:43:27.047Z,6.30
2018-09-12T12:44:27.013Z,6.10
2018-09-12T12:45:26.985Z,6.20
2018-09-12T12:46:26.959Z,7.00
2018-09-12T12:47:26.932Z,6.00
2018-09-12T12:48:26.909Z,6.40
2018-09-12T12:49:26.869Z,6.60
2018-09-12T12:50:26.847Z,6.80
2018-09-12T12:51:26.866Z,6.80
2018-09-12T12:52:26.799Z,7.30
2018-09-12T12:53:26.779Z,7.40
2018-09-12T12:54:26.733Z,7.50
2018-09-12T12:55:26.706Z,7.30
2018-09-12T12:56:26.675Z,6.90
2018-09-12T12:57:26.649Z,7.10
2018-09-12T12:58:26.630Z,8.40
2018-09-12T12:59:26.593Z,8.60
2018-09-12T13:00:26.566Z,8.40
2018-09-12T13:01:26.538Z,8.90
2018-09-12T13:02:26.503Z,8.50
2018-09-12T13:03:26.485Z,9.00
2018-09-12T13:04:26.451Z,10.20
2018-09-12T13:05:26.426Z,9.90
2018-09-12T13:06:26.393Z,9.60